sensor_id;sensor_type;location;lat;lon;timestamp;P1;durP1;ratioP1;P2;durP2;ratioP2
21091;SDS011;10704;42.678;23.288;2024-02-15T00:01:41;12.35;;;6.53;;
21091;SDS011;10704;42.678;23.288;2024-02-15T00:04:08;12.88;;;7.60;;
21091;SDS011;10704;42.678;23.288;2024-02-15T00:06:36;15.63;;;7.45;;
21091;SDS011;10704;42.678;23.288;2024-02-15T00:09:02;10.65;;;6.50;;
21091;SDS011;10704;42.678;23.288;2024-02-15T00:11:28;11.55;;;6.93;;
21091;SDS011;10704;42.678;23.288;2024-02-15T00:13:53;11.32;;;6.53;;
21091;SDS011;10704;42.678;23.288;2024-02-15T00:16:21;13.75;;;7.10;;
21091;SDS011;10704;42.678;23.288;2024-02-15T00:18:47;11.40;;;7.40;;
21091;SDS011;10704;42.678;23.288;2024-02-15T00:21:14;15.85;;;7.38;;
21091;SDS011;10704;42.678;23.288;2024-02-15T00:23:43;12.40;;;7.05;;
21091;SDS011;10704;42.678;23.288;2024-02-15T00:26:09;11.30;;;7.28;;
21091;SDS011;10704;42.678;23.288;2024-02-15T00:28:37;12.52;;;7.07;;
21091;SDS011;10704;42.678;23.288;2024-02-15T00:31:03;12.23;;;7.07;;
21091;SDS011;10704;42.678;23.288;2024-02-15T00:33:29;10.60;;;6.72;;
21091;SDS011;10704;42.678;23.288;2024-02-15T00:35:55;15.10;;;7.25;;
21091;SDS011;10704;42.678;23.288;2024-02-15T00:38:21;11.63;;;6.57;;
21091;SDS011;10704;42.678;23.288;2024-02-15T00:40:47;15.30;;;8.00;;
21091;SDS011;10704;42.678;23.288;2024-02-15T00:43:13;11.55;;;6.30;;
21091;SDS011;10704;42.678;23.288;2024-02-15T00:45:39;11.90;;;6.63;;
21091;SDS011;10704;42.678;23.288;2024-02-15T00:48:06;12.85;;;7.47;;
21091;SDS011;10704;42.678;23.288;2024-02-15T00:50:32;13.02;;;7.28;;
21091;SDS011;10704;42.678;23.288;2024-02-15T00:52:58;13.45;;;6.75;;
21091;SDS011;10704;42.678;23.288;2024-02-15T00:55:24;14.38;;;6.85;;
21091;SDS011;10704;42.678;23.288;2024-02-15T00:57:50;13.90;;;7.07;;
21091;SDS011;10704;42.678;23.288;2024-02-15T01:00:16;14.27;;;7.35;;
21091;SDS011;10704;42.678;23.288;2024-02-15T01:02:42;12.48;;;6.45;;
21091;SDS011;10704;42.678;23.288;2024-02-15T01:05:08;13.43;;;6.78;;
21091;SDS011;10704;42.678;23.288;2024-02-15T01:07:35;14.10;;;7.50;;
21091;SDS011;10704;42.678;23.288;2024-02-15T01:10:01;12.43;;;6.18;;
21091;SDS011;10704;42.678;23.288;2024-02-15T01:12:28;12.82;;;6.90;;
21091;SDS011;10704;42.678;23.288;2024-02-15T01:14:54;12.57;;;6.63;;
21091;SDS011;10704;42.678;23.288;2024-02-15T01:17:21;11.43;;;6.65;;
21091;SDS011;10704;42.678;23.288;2024-02-15T01:19:47;11.55;;;6.35;;
21091;SDS011;10704;42.678;23.288;2024-02-15T01:22:13;14.55;;;7.15;;
21091;SDS011;10704;42.678;23.288;2024-02-15T01:24:39;15.40;;;6.63;;
21091;SDS011;10704;42.678;23.288;2024-02-15T01:27:06;14.02;;;7.22;;
21091;SDS011;10704;42.678;23.288;2024-02-15T01:29:32;19.60;;;9.27;;
21091;SDS011;10704;42.678;23.288;2024-02-15T01:31:58;15.73;;;8.20;;
21091;SDS011;10704;42.678;23.288;2024-02-15T01:34:24;13.25;;;7.85;;
21091;SDS011;10704;42.678;23.288;2024-02-15T01:36:50;12.45;;;6.88;;
21091;SDS011;10704;42.678;23.288;2024-02-15T01:39:16;12.77;;;7.03;;
21091;SDS011;10704;42.678;23.288;2024-02-15T01:41:49;15.02;;;6.90;;
21091;SDS011;10704;42.678;23.288;2024-02-15T01:44:21;10.70;;;6.82;;
21091;SDS011;10704;42.678;23.288;2024-02-15T01:46:49;15.18;;;7.20;;
21091;SDS011;10704;42.678;23.288;2024-02-15T01:49:22;15.30;;;6.93;;
21091;SDS011;10704;42.678;23.288;2024-02-15T01:51:50;12.65;;;6.53;;
21091;SDS011;10704;42.678;23.288;2024-02-15T01:54:18;10.82;;;5.72;;
21091;SDS011;10704;42.678;23.288;2024-02-15T01:56:45;13.27;;;7.72;;
21091;SDS011;10704;42.678;23.288;2024-02-15T01:59:12;13.15;;;6.45;;
21091;SDS011;10704;42.678;23.288;2024-02-15T02:01:41;12.68;;;7.00;;
21091;SDS011;10704;42.678;23.288;2024-02-15T02:04:08;11.40;;;6.53;;
21091;SDS011;10704;42.678;23.288;2024-02-15T02:06:36;11.07;;;6.95;;
21091;SDS011;10704;42.678;23.288;2024-02-15T02:09:02;13.63;;;6.80;;
21091;SDS011;10704;42.678;23.288;2024-02-15T02:15:16;15.65;;;7.20;;
21091;SDS011;10704;42.678;23.288;2024-02-15T02:17:42;14.73;;;7.75;;
21091;SDS011;10704;42.678;23.288;2024-02-15T02:20:08;16.88;;;8.10;;
21091;SDS011;10704;42.678;23.288;2024-02-15T02:22:36;14.25;;;6.88;;
21091;SDS011;10704;42.678;23.288;2024-02-15T02:25:04;14.10;;;8.13;;
21091;SDS011;10704;42.678;23.288;2024-02-15T02:27:32;13.93;;;7.20;;
21091;SDS011;10704;42.678;23.288;2024-02-15T02:29:58;13.45;;;6.93;;
21091;SDS011;10704;42.678;23.288;2024-02-15T02:32:25;12.05;;;6.88;;
21091;SDS011;10704;42.678;23.288;2024-02-15T02:34:53;13.75;;;7.85;;
21091;SDS011;10704;42.678;23.288;2024-02-15T02:37:23;12.25;;;7.43;;
21091;SDS011;10704;42.678;23.288;2024-02-15T02:39:49;13.18;;;7.35;;
21091;SDS011;10704;42.678;23.288;2024-02-15T02:42:17;13.45;;;7.38;;
21091;SDS011;10704;42.678;23.288;2024-02-15T02:44:43;11.82;;;6.35;;
21091;SDS011;10704;42.678;23.288;2024-02-15T02:47:09;13.18;;;6.95;;
21091;SDS011;10704;42.678;23.288;2024-02-15T02:49:35;15.18;;;7.70;;
21091;SDS011;10704;42.678;23.288;2024-02-15T02:52:02;15.45;;;7.55;;
21091;SDS011;10704;42.678;23.288;2024-02-15T02:54:28;13.63;;;8.20;;
21091;SDS011;10704;42.678;23.288;2024-02-15T02:56:55;12.80;;;7.38;;
21091;SDS011;10704;42.678;23.288;2024-02-15T02:59:21;14.07;;;7.28;;
21091;SDS011;10704;42.678;23.288;2024-02-15T03:01:47;14.77;;;8.05;;
21091;SDS011;10704;42.678;23.288;2024-02-15T03:04:16;13.02;;;8.10;;
21091;SDS011;10704;42.678;23.288;2024-02-15T03:06:42;17.05;;;8.27;;
21091;SDS011;10704;42.678;23.288;2024-02-15T03:09:09;16.77;;;8.05;;
21091;SDS011;10704;42.678;23.288;2024-02-15T03:11:36;16.85;;;8.60;;
21091;SDS011;10704;42.678;23.288;2024-02-15T03:14:02;16.63;;;8.63;;
21091;SDS011;10704;42.678;23.288;2024-02-15T03:16:31;15.40;;;8.13;;
21091;SDS011;10704;42.678;23.288;2024-02-15T03:18:59;14.68;;;7.10;;
21091;SDS011;10704;42.678;23.288;2024-02-15T03:21:28;13.00;;;7.65;;
21091;SDS011;10704;42.678;23.288;2024-02-15T03:23:54;15.07;;;8.75;;
21091;SDS011;10704;42.678;23.288;2024-02-15T03:26:29;17.33;;;9.65;;
21091;SDS011;10704;42.678;23.288;2024-02-15T03:29:05;14.45;;;8.13;;
21091;SDS011;10704;42.678;23.288;2024-02-15T03:31:32;13.98;;;8.27;;
21091;SDS011;10704;42.678;23.288;2024-02-15T03:34:05;14.57;;;7.65;;
21091;SDS011;10704;42.678;23.288;2024-02-15T03:36:31;15.50;;;8.27;;
21091;SDS011;10704;42.678;23.288;2024-02-15T03:38:58;17.50;;;9.18;;
21091;SDS011;10704;42.678;23.288;2024-02-15T03:41:26;15.70;;;9.15;;
21091;SDS011;10704;42.678;23.288;2024-02-15T03:43:56;15.82;;;8.70;;
21091;SDS011;10704;42.678;23.288;2024-02-15T03:46:23;13.63;;;7.75;;
21091;SDS011;10704;42.678;23.288;2024-02-15T03:48:49;15.75;;;8.85;;
21091;SDS011;10704;42.678;23.288;2024-02-15T03:51:16;14.10;;;8.52;;
21091;SDS011;10704;42.678;23.288;2024-02-15T03:53:46;14.50;;;8.63;;
21091;SDS011;10704;42.678;23.288;2024-02-15T03:56:14;15.15;;;8.05;;
21091;SDS011;10704;42.678;23.288;2024-02-15T03:58:40;17.23;;;8.85;;
21091;SDS011;10704;42.678;23.288;2024-02-15T04:01:05;14.40;;;8.57;;
21091;SDS011;10704;42.678;23.288;2024-02-15T04:03:35;14.43;;;8.05;;
21091;SDS011;10704;42.678;23.288;2024-02-15T04:06:02;14.35;;;8.38;;
21091;SDS011;10704;42.678;23.288;2024-02-15T04:08:29;17.30;;;8.90;;
21091;SDS011;10704;42.678;23.288;2024-02-15T04:10:55;18.15;;;8.98;;
21091;SDS011;10704;42.678;23.288;2024-02-15T04:13:23;16.13;;;8.63;;
21091;SDS011;10704;42.678;23.288;2024-02-15T04:15:49;16.02;;;8.48;;
21091;SDS011;10704;42.678;23.288;2024-02-15T04:18:18;16.27;;;8.50;;
21091;SDS011;10704;42.678;23.288;2024-02-15T04:20:44;14.57;;;7.88;;
21091;SDS011;10704;42.678;23.288;2024-02-15T04:23:12;15.38;;;7.75;;
21091;SDS011;10704;42.678;23.288;2024-02-15T04:25:38;14.77;;;8.68;;
21091;SDS011;10704;42.678;23.288;2024-02-15T04:28:06;15.00;;;8.57;;
21091;SDS011;10704;42.678;23.288;2024-02-15T04:30:34;16.33;;;8.68;;
21091;SDS011;10704;42.678;23.288;2024-02-15T04:33:00;15.10;;;8.18;;
21091;SDS011;10704;42.678;23.288;2024-02-15T04:35:26;18.60;;;8.68;;
21091;SDS011;10704;42.678;23.288;2024-02-15T04:37:53;17.52;;;8.77;;
21091;SDS011;10704;42.678;23.288;2024-02-15T04:40:19;15.93;;;8.90;;
21091;SDS011;10704;42.678;23.288;2024-02-15T04:42:48;13.43;;;7.68;;
21091;SDS011;10704;42.678;23.288;2024-02-15T04:45:14;15.23;;;7.93;;
21091;SDS011;10704;42.678;23.288;2024-02-15T04:47:40;17.13;;;8.40;;
21091;SDS011;10704;42.678;23.288;2024-02-15T04:50:07;17.42;;;8.57;;
21091;SDS011;10704;42.678;23.288;2024-02-15T04:52:34;16.02;;;8.25;;
21091;SDS011;10704;42.678;23.288;2024-02-15T04:55:01;17.05;;;8.85;;
21091;SDS011;10704;42.678;23.288;2024-02-15T04:57:30;17.17;;;8.43;;
21091;SDS011;10704;42.678;23.288;2024-02-15T04:59:56;19.27;;;9.05;;
21091;SDS011;10704;42.678;23.288;2024-02-15T05:02:23;15.40;;;8.50;;
21091;SDS011;10704;42.678;23.288;2024-02-15T05:04:50;13.65;;;8.18;;
21091;SDS011;10704;42.678;23.288;2024-02-15T05:07:21;17.60;;;8.77;;
21091;SDS011;10704;42.678;23.288;2024-02-15T05:09:48;19.27;;;8.93;;
21091;SDS011;10704;42.678;23.288;2024-02-15T05:12:21;17.85;;;8.88;;
21091;SDS011;10704;42.678;23.288;2024-02-15T05:14:51;20.30;;;9.43;;
21091;SDS011;10704;42.678;23.288;2024-02-15T05:17:18;17.58;;;9.00;;
21091;SDS011;10704;42.678;23.288;2024-02-15T05:19:44;14.18;;;8.35;;
21091;SDS011;10704;42.678;23.288;2024-02-15T05:22:10;17.60;;;8.85;;
21091;SDS011;10704;42.678;23.288;2024-02-15T05:24:36;21.08;;;8.63;;
21091;SDS011;10704;42.678;23.288;2024-02-15T05:27:04;16.23;;;8.48;;
21091;SDS011;10704;42.678;23.288;2024-02-15T05:29:30;16.35;;;8.57;;
21091;SDS011;10704;42.678;23.288;2024-02-15T05:31:59;18.60;;;8.95;;
21091;SDS011;10704;42.678;23.288;2024-02-15T05:34:26;17.75;;;9.02;;
21091;SDS011;10704;42.678;23.288;2024-02-15T05:39:42;18.83;;;9.27;;
21091;SDS011;10704;42.678;23.288;2024-02-15T05:46:09;14.02;;;8.10;;
21091;SDS011;10704;42.678;23.288;2024-02-15T05:48:36;13.63;;;7.40;;
21091;SDS011;10704;42.678;23.288;2024-02-15T05:51:06;15.52;;;8.90;;
21091;SDS011;10704;42.678;23.288;2024-02-15T05:53:33;17.50;;;8.68;;
21091;SDS011;10704;42.678;23.288;2024-02-15T05:56:07;13.48;;;7.88;;
21091;SDS011;10704;42.678;23.288;2024-02-15T05:58:35;16.58;;;8.55;;
21091;SDS011;10704;42.678;23.288;2024-02-15T06:01:02;16.88;;;8.75;;
21091;SDS011;10704;42.678;23.288;2024-02-15T06:03:33;16.08;;;8.85;;
21091;SDS011;10704;42.678;23.288;2024-02-15T06:06:04;15.77;;;8.40;;
21091;SDS011;10704;42.678;23.288;2024-02-15T06:08:33;20.48;;;9.48;;
21091;SDS011;10704;42.678;23.288;2024-02-15T06:11:00;17.52;;;8.73;;
21091;SDS011;10704;42.678;23.288;2024-02-15T06:13:26;16.10;;;8.27;;
21091;SDS011;10704;42.678;23.288;2024-02-15T06:15:53;15.82;;;8.38;;
21091;SDS011;10704;42.678;23.288;2024-02-15T06:18:19;19.55;;;8.45;;
21091;SDS011;10704;42.678;23.288;2024-02-15T06:20:57;19.50;;;8.18;;
21091;SDS011;10704;42.678;23.288;2024-02-15T06:23:24;18.00;;;8.27;;
21091;SDS011;10704;42.678;23.288;2024-02-15T06:25:52;18.60;;;8.50;;
21091;SDS011;10704;42.678;23.288;2024-02-15T06:28:19;19.00;;;8.55;;
21091;SDS011;10704;42.678;23.288;2024-02-15T06:31:04;20.95;;;8.70;;
21091;SDS011;10704;42.678;23.288;2024-02-15T06:33:49;19.08;;;9.15;;
21091;SDS011;10704;42.678;23.288;2024-02-15T06:36:34;18.60;;;9.98;;
21091;SDS011;10704;42.678;23.288;2024-02-15T06:39:37;14.68;;;7.82;;
21091;SDS011;10704;42.678;23.288;2024-02-15T06:42:06;14.90;;;7.97;;
21091;SDS011;10704;42.678;23.288;2024-02-15T06:48:24;17.85;;;9.32;;
21091;SDS011;10704;42.678;23.288;2024-02-15T06:50:51;19.33;;;8.25;;
21091;SDS011;10704;42.678;23.288;2024-02-15T06:53:17;23.38;;;9.10;;
21091;SDS011;10704;42.678;23.288;2024-02-15T06:55:46;21.50;;;8.98;;
21091;SDS011;10704;42.678;23.288;2024-02-15T06:58:15;17.33;;;8.48;;
21091;SDS011;10704;42.678;23.288;2024-02-15T07:00:42;23.45;;;8.57;;
21091;SDS011;10704;42.678;23.288;2024-02-15T07:03:08;25.20;;;8.90;;
21091;SDS011;10704;42.678;23.288;2024-02-15T07:05:36;19.75;;;9.77;;
21091;SDS011;10704;42.678;23.288;2024-02-15T07:08:07;17.50;;;8.45;;
21091;SDS011;10704;42.678;23.288;2024-02-15T07:10:38;14.43;;;7.85;;
21091;SDS011;10704;42.678;23.288;2024-02-15T07:13:05;16.88;;;9.23;;
21091;SDS011;10704;42.678;23.288;2024-02-15T07:15:35;19.80;;;8.25;;
21091;SDS011;10704;42.678;23.288;2024-02-15T07:18:05;15.95;;;8.15;;
21091;SDS011;10704;42.678;23.288;2024-02-15T07:20:35;17.48;;;8.35;;
21091;SDS011;10704;42.678;23.288;2024-02-15T07:23:01;18.30;;;7.68;;
21091;SDS011;10704;42.678;23.288;2024-02-15T07:25:27;15.65;;;7.80;;
21091;SDS011;10704;42.678;23.288;2024-02-15T07:27:53;14.90;;;7.63;;
21091;SDS011;10704;42.678;23.288;2024-02-15T07:30:19;19.10;;;8.40;;
21091;SDS011;10704;42.678;23.288;2024-02-15T07:32:45;16.95;;;8.02;;
21091;SDS011;10704;42.678;23.288;2024-02-15T07:35:11;15.70;;;8.15;;
21091;SDS011;10704;42.678;23.288;2024-02-15T07:37:39;18.52;;;9.50;;
21091;SDS011;10704;42.678;23.288;2024-02-15T07:40:15;20.48;;;8.65;;
21091;SDS011;10704;42.678;23.288;2024-02-15T07:42:42;14.68;;;7.90;;
21091;SDS011;10704;42.678;23.288;2024-02-15T07:45:08;13.27;;;6.82;;
21091;SDS011;10704;42.678;23.288;2024-02-15T07:47:36;14.32;;;7.38;;
21091;SDS011;10704;42.678;23.288;2024-02-15T07:50:03;15.65;;;6.95;;
21091;SDS011;10704;42.678;23.288;2024-02-15T07:52:31;15.57;;;7.60;;
21091;SDS011;10704;42.678;23.288;2024-02-15T07:54:58;16.65;;;6.95;;
21091;SDS011;10704;42.678;23.288;2024-02-15T07:57:24;12.88;;;7.18;;
21091;SDS011;10704;42.678;23.288;2024-02-15T07:59:51;16.98;;;7.22;;
21091;SDS011;10704;42.678;23.288;2024-02-15T08:02:17;14.18;;;7.07;;
21091;SDS011;10704;42.678;23.288;2024-02-15T08:04:47;16.55;;;7.68;;
21091;SDS011;10704;42.678;23.288;2024-02-15T08:07:13;12.50;;;7.07;;
21091;SDS011;10704;42.678;23.288;2024-02-15T08:09:41;12.85;;;6.53;;
21091;SDS011;10704;42.678;23.288;2024-02-15T08:12:07;15.13;;;7.60;;
21091;SDS011;10704;42.678;23.288;2024-02-15T08:14:33;15.88;;;7.35;;
21091;SDS011;10704;42.678;23.288;2024-02-15T08:16:59;24.90;;;11.23;;
21091;SDS011;10704;42.678;23.288;2024-02-15T08:19:26;19.77;;;10.05;;
21091;SDS011;10704;42.678;23.288;2024-02-15T08:21:54;25.20;;;10.55;;
21091;SDS011;10704;42.678;23.288;2024-02-15T08:24:20;18.15;;;9.25;;
21091;SDS011;10704;42.678;23.288;2024-02-15T08:26:46;14.90;;;7.85;;
21091;SDS011;10704;42.678;23.288;2024-02-15T08:29:12;12.98;;;6.75;;
21091;SDS011;10704;42.678;23.288;2024-02-15T08:31:40;14.48;;;7.70;;
21091;SDS011;10704;42.678;23.288;2024-02-15T08:34:06;14.65;;;7.30;;
21091;SDS011;10704;42.678;23.288;2024-02-15T08:36:35;13.85;;;7.78;;
21091;SDS011;10704;42.678;23.288;2024-02-15T08:39:01;16.50;;;7.50;;
21091;SDS011;10704;42.678;23.288;2024-02-15T08:41:29;16.60;;;7.20;;
21091;SDS011;10704;42.678;23.288;2024-02-15T08:43:55;12.52;;;6.57;;
21091;SDS011;10704;42.678;23.288;2024-02-15T08:46:25;13.27;;;7.07;;
21091;SDS011;10704;42.678;23.288;2024-02-15T08:48:52;16.83;;;7.53;;
21091;SDS011;10704;42.678;23.288;2024-02-15T08:51:18;12.65;;;6.70;;
21091;SDS011;10704;42.678;23.288;2024-02-15T08:53:46;15.57;;;6.90;;
21091;SDS011;10704;42.678;23.288;2024-02-15T08:56:11;13.50;;;6.38;;
21091;SDS011;10704;42.678;23.288;2024-02-15T08:58:37;13.45;;;6.55;;
21091;SDS011;10704;42.678;23.288;2024-02-15T09:01:05;13.48;;;6.57;;
21091;SDS011;10704;42.678;23.288;2024-02-15T09:03:33;13.95;;;7.00;;
21091;SDS011;10704;42.678;23.288;2024-02-15T09:05:59;13.18;;;6.97;;
21091;SDS011;10704;42.678;23.288;2024-02-15T09:08:28;15.35;;;7.32;;
21091;SDS011;10704;42.678;23.288;2024-02-15T09:10:55;12.77;;;6.80;;
21091;SDS011;10704;42.678;23.288;2024-02-15T09:13:23;14.18;;;7.55;;
21091;SDS011;10704;42.678;23.288;2024-02-15T09:15:49;11.45;;;6.80;;
21091;SDS011;10704;42.678;23.288;2024-02-15T09:18:15;13.32;;;7.43;;
21091;SDS011;10704;42.678;23.288;2024-02-15T09:20:43;14.35;;;7.53;;
21091;SDS011;10704;42.678;23.288;2024-02-15T09:23:12;14.38;;;6.97;;
21091;SDS011;10704;42.678;23.288;2024-02-15T09:25:39;14.68;;;6.95;;
21091;SDS011;10704;42.678;23.288;2024-02-15T09:28:08;14.55;;;8.20;;
21091;SDS011;10704;42.678;23.288;2024-02-15T09:30:34;18.50;;;8.30;;
21091;SDS011;10704;42.678;23.288;2024-02-15T09:33:00;11.63;;;6.00;;
21091;SDS011;10704;42.678;23.288;2024-02-15T09:35:30;10.70;;;6.00;;
21091;SDS011;10704;42.678;23.288;2024-02-15T09:37:57;10.75;;;5.90;;
21091;SDS011;10704;42.678;23.288;2024-02-15T09:40:23;10.50;;;6.30;;
21091;SDS011;10704;42.678;23.288;2024-02-15T09:42:54;10.35;;;6.40;;
21091;SDS011;10704;42.678;23.288;2024-02-15T09:45:20;12.18;;;6.20;;
21091;SDS011;10704;42.678;23.288;2024-02-15T09:47:53;11.75;;;6.53;;
21091;SDS011;10704;42.678;23.288;2024-02-15T09:50:20;10.13;;;6.43;;
21091;SDS011;10704;42.678;23.288;2024-02-15T09:52:50;12.63;;;6.38;;
21091;SDS011;10704;42.678;23.288;2024-02-15T09:55:17;14.05;;;7.22;;
21091;SDS011;10704;42.678;23.288;2024-02-15T09:57:44;13.27;;;6.85;;
21091;SDS011;10704;42.678;23.288;2024-02-15T10:00:14;12.63;;;6.82;;
21091;SDS011;10704;42.678;23.288;2024-02-15T10:02:46;10.43;;;6.32;;
21091;SDS011;10704;42.678;23.288;2024-02-15T10:05:13;11.95;;;6.00;;
21091;SDS011;10704;42.678;23.288;2024-02-15T10:07:39;10.38;;;5.75;;
21091;SDS011;10704;42.678;23.288;2024-02-15T10:10:19;11.18;;;6.07;;
21091;SDS011;10704;42.678;23.288;2024-02-15T10:12:49;13.38;;;6.28;;
21091;SDS011;10704;42.678;23.288;2024-02-15T10:18:04;9.77;;;5.80;;
21091;SDS011;10704;42.678;23.288;2024-02-15T10:20:35;11.77;;;5.95;;
21091;SDS011;10704;42.678;23.288;2024-02-15T10:25:42;10.32;;;5.50;;
21091;SDS011;10704;42.678;23.288;2024-02-15T10:28:09;13.75;;;5.63;;
21091;SDS011;10704;42.678;23.288;2024-02-15T10:30:37;10.35;;;5.43;;
21091;SDS011;10704;42.678;23.288;2024-02-15T10:33:04;9.95;;;5.60;;
21091;SDS011;10704;42.678;23.288;2024-02-15T10:35:35;10.23;;;6.00;;
21091;SDS011;10704;42.678;23.288;2024-02-15T10:38:05;10.48;;;6.32;;
21091;SDS011;10704;42.678;23.288;2024-02-15T10:40:36;10.73;;;6.07;;
21091;SDS011;10704;42.678;23.288;2024-02-15T10:43:06;11.10;;;6.43;;
21091;SDS011;10704;42.678;23.288;2024-02-15T10:45:34;11.50;;;5.88;;
21091;SDS011;10704;42.678;23.288;2024-02-15T10:48:08;10.52;;;5.88;;
21091;SDS011;10704;42.678;23.288;2024-02-15T10:50:35;9.70;;;5.88;;
21091;SDS011;10704;42.678;23.288;2024-02-15T10:53:09;10.10;;;5.55;;
21091;SDS011;10704;42.678;23.288;2024-02-15T10:56:12;14.02;;;7.18;;
21091;SDS011;10704;42.678;23.288;2024-02-15T10:58:44;13.73;;;6.32;;
21091;SDS011;10704;42.678;23.288;2024-02-15T11:01:13;15.20;;;7.30;;
21091;SDS011;10704;42.678;23.288;2024-02-15T11:03:56;13.52;;;6.95;;
21091;SDS011;10704;42.678;23.288;2024-02-15T11:06:27;15.55;;;7.32;;
21091;SDS011;10704;42.678;23.288;2024-02-15T11:08:55;9.10;;;4.93;;
21091;SDS011;10704;42.678;23.288;2024-02-15T11:11:23;11.90;;;6.53;;
21091;SDS011;10704;42.678;23.288;2024-02-15T11:13:49;11.25;;;7.35;;
21091;SDS011;10704;42.678;23.288;2024-02-15T11:16:42;10.40;;;5.47;;
21091;SDS011;10704;42.678;23.288;2024-02-15T11:19:30;8.70;;;5.18;;
21091;SDS011;10704;42.678;23.288;2024-02-15T11:22:11;9.70;;;5.03;;
21091;SDS011;10704;42.678;23.288;2024-02-15T11:24:49;9.73;;;4.68;;
21091;SDS011;10704;42.678;23.288;2024-02-15T11:27:27;8.30;;;4.85;;
21091;SDS011;10704;42.678;23.288;2024-02-15T11:29:57;9.55;;;5.45;;
21091;SDS011;10704;42.678;23.288;2024-02-15T11:32:46;12.85;;;5.00;;
21091;SDS011;10704;42.678;23.288;2024-02-15T11:35:21;11.63;;;5.20;;
21091;SDS011;10704;42.678;23.288;2024-02-15T11:40:23;11.77;;;5.03;;
21091;SDS011;10704;42.678;23.288;2024-02-15T11:45:24;8.02;;;4.78;;
21091;SDS011;10704;42.678;23.288;2024-02-15T11:47:54;9.68;;;4.25;;
21091;SDS011;10704;42.678;23.288;2024-02-15T11:50:21;11.07;;;5.20;;
21091;SDS011;10704;42.678;23.288;2024-02-15T11:52:48;9.95;;;5.53;;
21091;SDS011;10704;42.678;23.288;2024-02-15T11:55:17;10.80;;;5.38;;
21091;SDS011;10704;42.678;23.288;2024-02-15T11:57:54;12.80;;;5.75;;
21091;SDS011;10704;42.678;23.288;2024-02-15T12:00:33;9.85;;;4.90;;
21091;SDS011;10704;42.678;23.288;2024-02-15T12:03:17;7.88;;;4.75;;
21091;SDS011;10704;42.678;23.288;2024-02-15T12:06:04;8.48;;;4.68;;
21091;SDS011;10704;42.678;23.288;2024-02-15T12:08:51;8.73;;;5.00;;
21091;SDS011;10704;42.678;23.288;2024-02-15T12:11:37;7.38;;;4.75;;
21091;SDS011;10704;42.678;23.288;2024-02-15T12:17:48;9.77;;;5.10;;
21091;SDS011;10704;42.678;23.288;2024-02-15T12:20:33;8.65;;;5.35;;
21091;SDS011;10704;42.678;23.288;2024-02-15T12:22:59;12.27;;;6.05;;
21091;SDS011;10704;42.678;23.288;2024-02-15T12:25:25;11.63;;;5.40;;
21091;SDS011;10704;42.678;23.288;2024-02-15T12:27:53;10.50;;;5.13;;
21091;SDS011;10704;42.678;23.288;2024-02-15T12:30:20;9.50;;;5.60;;
21091;SDS011;10704;42.678;23.288;2024-02-15T12:32:50;11.05;;;4.82;;
21091;SDS011;10704;42.678;23.288;2024-02-15T12:35:18;10.93;;;5.55;;
21091;SDS011;10704;42.678;23.288;2024-02-15T12:37:46;7.22;;;4.60;;
21091;SDS011;10704;42.678;23.288;2024-02-15T12:40:13;9.82;;;4.70;;
21091;SDS011;10704;42.678;23.288;2024-02-15T12:42:44;10.35;;;5.70;;
21091;SDS011;10704;42.678;23.288;2024-02-15T12:45:18;7.43;;;4.30;;
21091;SDS011;10704;42.678;23.288;2024-02-15T12:47:51;9.32;;;5.07;;
21091;SDS011;10704;42.678;23.288;2024-02-15T12:50:19;10.43;;;5.25;;
21091;SDS011;10704;42.678;23.288;2024-02-15T12:52:47;9.60;;;5.00;;
21091;SDS011;10704;42.678;23.288;2024-02-15T12:55:14;10.45;;;5.57;;
21091;SDS011;10704;42.678;23.288;2024-02-15T12:57:42;9.77;;;5.50;;
21091;SDS011;10704;42.678;23.288;2024-02-15T13:00:11;9.55;;;4.70;;
21091;SDS011;10704;42.678;23.288;2024-02-15T13:02:44;9.10;;;5.15;;
21091;SDS011;10704;42.678;23.288;2024-02-15T13:05:14;9.30;;;5.03;;
21091;SDS011;10704;42.678;23.288;2024-02-15T13:07:40;9.90;;;5.50;;
21091;SDS011;10704;42.678;23.288;2024-02-15T13:10:07;9.00;;;5.22;;
21091;SDS011;10704;42.678;23.288;2024-02-15T13:12:34;13.23;;;5.75;;
21091;SDS011;10704;42.678;23.288;2024-02-15T13:15:04;12.68;;;5.18;;
21091;SDS011;10704;42.678;23.288;2024-02-15T13:17:32;9.45;;;4.93;;
21091;SDS011;10704;42.678;23.288;2024-02-15T13:20:01;7.95;;;4.70;;
21091;SDS011;10704;42.678;23.288;2024-02-15T13:22:30;11.15;;;5.57;;
21091;SDS011;10704;42.678;23.288;2024-02-15T13:24:57;8.50;;;4.82;;
21091;SDS011;10704;42.678;23.288;2024-02-15T13:27:23;8.35;;;4.88;;
21091;SDS011;10704;42.678;23.288;2024-02-15T13:29:50;8.00;;;4.70;;
21091;SDS011;10704;42.678;23.288;2024-02-15T13:32:16;11.38;;;5.43;;
21091;SDS011;10704;42.678;23.288;2024-02-15T13:34:46;12.30;;;5.70;;
21091;SDS011;10704;42.678;23.288;2024-02-15T13:37:21;10.13;;;4.88;;
21091;SDS011;10704;42.678;23.288;2024-02-15T13:39:50;11.25;;;4.57;;
21091;SDS011;10704;42.678;23.288;2024-02-15T13:42:16;7.18;;;4.88;;
21091;SDS011;10704;42.678;23.288;2024-02-15T13:44:45;8.85;;;4.78;;
21091;SDS011;10704;42.678;23.288;2024-02-15T13:47:13;13.05;;;5.78;;
21091;SDS011;10704;42.678;23.288;2024-02-15T13:49:41;10.20;;;5.28;;
21091;SDS011;10704;42.678;23.288;2024-02-15T13:52:07;8.52;;;4.78;;
21091;SDS011;10704;42.678;23.288;2024-02-15T13:54:36;9.20;;;4.88;;
21091;SDS011;10704;42.678;23.288;2024-02-15T13:57:02;10.52;;;5.68;;
21091;SDS011;10704;42.678;23.288;2024-02-15T13:59:28;8.68;;;4.68;;
21091;SDS011;10704;42.678;23.288;2024-02-15T14:01:55;9.20;;;5.32;;
21091;SDS011;10704;42.678;23.288;2024-02-15T14:04:21;8.20;;;4.38;;
21091;SDS011;10704;42.678;23.288;2024-02-15T14:06:47;8.27;;;4.78;;
21091;SDS011;10704;42.678;23.288;2024-02-15T14:09:14;10.02;;;5.32;;
21091;SDS011;10704;42.678;23.288;2024-02-15T14:11:40;9.52;;;5.35;;
21091;SDS011;10704;42.678;23.288;2024-02-15T14:14:06;9.68;;;4.90;;
21091;SDS011;10704;42.678;23.288;2024-02-15T14:16:32;8.73;;;4.93;;
21091;SDS011;10704;42.678;23.288;2024-02-15T14:18:58;7.30;;;4.30;;
21091;SDS011;10704;42.678;23.288;2024-02-15T14:21:24;10.30;;;5.20;;
21091;SDS011;10704;42.678;23.288;2024-02-15T14:23:51;8.82;;;4.90;;
21091;SDS011;10704;42.678;23.288;2024-02-15T14:26:17;9.38;;;4.70;;
21091;SDS011;10704;42.678;23.288;2024-02-15T14:28:43;9.48;;;5.15;;
21091;SDS011;10704;42.678;23.288;2024-02-15T14:31:10;7.03;;;4.28;;
21091;SDS011;10704;42.678;23.288;2024-02-15T14:33:54;8.02;;;4.47;;
21091;SDS011;10704;42.678;23.288;2024-02-15T14:36:21;13.13;;;4.93;;
21091;SDS011;10704;42.678;23.288;2024-02-15T14:38:47;8.02;;;4.82;;
21091;SDS011;10704;42.678;23.288;2024-02-15T14:41:13;10.20;;;4.88;;
21091;SDS011;10704;42.678;23.288;2024-02-15T14:43:39;11.68;;;5.85;;
21091;SDS011;10704;42.678;23.288;2024-02-15T14:46:05;9.65;;;5.30;;
21091;SDS011;10704;42.678;23.288;2024-02-15T14:48:33;15.90;;;5.65;;
21091;SDS011;10704;42.678;23.288;2024-02-15T14:51:00;14.63;;;7.57;;
21091;SDS011;10704;42.678;23.288;2024-02-15T14:53:27;8.55;;;5.80;;
21091;SDS011;10704;42.678;23.288;2024-02-15T14:55:53;9.98;;;6.00;;
21091;SDS011;10704;42.678;23.288;2024-02-15T14:58:20;9.13;;;4.60;;
21091;SDS011;10704;42.678;23.288;2024-02-15T15:00:47;13.43;;;6.00;;